sensor_id;sensor_type;location;lat;lon;timestamp;temperature;humidity
65203;HTU21D;51788;45.124;38.966;2022-12-07T00:01:18;0.10;74.60
65203;HTU21D;51788;45.124;38.966;2022-12-07T00:03:45;0.16;74.55
65203;HTU21D;51788;45.124;38.966;2022-12-07T00:06:13;0.16;74.51
65203;HTU21D;51788;45.124;38.966;2022-12-07T00:08:39;0.15;74.51
65203;HTU21D;51788;45.124;38.966;2022-12-07T00:11:12;0.15;74.57
65203;HTU21D;51788;45.124;38.966;2022-12-07T00:13:39;0.17;74.35
65203;HTU21D;51788;45.124;38.966;2022-12-07T00:16:14;0.13;74.14
65203;HTU21D;51788;45.124;38.966;2022-12-07T00:18:40;0.06;74.04
65203;HTU21D;51788;45.124;38.966;2022-12-07T00:21:10;0.03;74.12
65203;HTU21D;51788;45.124;38.966;2022-12-07T00:23:37;0.01;74.18
65203;HTU21D;51788;45.124;38.966;2022-12-07T00:26:09;-0.00;74.12
65203;HTU21D;51788;45.124;38.966;2022-12-07T00:28:35;-0.05;74.22
65203;HTU21D;51788;45.124;38.966;2022-12-07T00:31:04;-0.05;74.07
65203;HTU21D;51788;45.124;38.966;2022-12-07T00:33:31;-0.09;74.20
65203;HTU21D;51788;45.124;38.966;2022-12-07T00:35:58;-0.10;74.29
65203;HTU21D;51788;45.124;38.966;2022-12-07T00:38:24;-0.09;74.23
65203;HTU21D;51788;45.124;38.966;2022-12-07T00:40:57;-0.12;74.23
65203;HTU21D;51788;45.124;38.966;2022-12-07T00:43:24;-0.16;74.31
65203;HTU21D;51788;45.124;38.966;2022-12-07T00:45:50;-0.16;74.38
65203;HTU21D;51788;45.124;38.966;2022-12-07T00:48:16;-0.16;74.44
65203;HTU21D;51788;45.124;38.966;2022-12-07T00:50:42;-0.12;74.34
65203;HTU21D;51788;45.124;38.966;2022-12-07T00:53:08;-0.11;74.27
65203;HTU21D;51788;45.124;38.966;2022-12-07T00:55:35;-0.14;74.22
65203;HTU21D;51788;45.124;38.966;2022-12-07T00:58:01;-0.16;74.34
65203;HTU21D;51788;45.124;38.966;2022-12-07T01:00:27;-0.15;74.22
65203;HTU21D;51788;45.124;38.966;2022-12-07T01:02:54;-0.17;74.42
65203;HTU21D;51788;45.124;38.966;2022-12-07T01:05:20;-0.17;74.33
65203;HTU21D;51788;45.124;38.966;2022-12-07T01:07:46;-0.20;74.38
65203;HTU21D;51788;45.124;38.966;2022-12-07T01:10:15;-0.20;74.42
65203;HTU21D;51788;45.124;38.966;2022-12-07T01:12:41;-0.20;74.38
65203;HTU21D;51788;45.124;38.966;2022-12-07T01:15:07;-0.21;74.50
65203;HTU21D;51788;45.124;38.966;2022-12-07T01:17:34;-0.19;74.38
65203;HTU21D;51788;45.124;38.966;2022-12-07T01:20:00;-0.20;74.46
65203;HTU21D;51788;45.124;38.966;2022-12-07T01:22:26;-0.22;74.47
65203;HTU21D;51788;45.124;38.966;2022-12-07T01:24:52;-0.22;74.52
65203;HTU21D;51788;45.124;38.966;2022-12-07T01:27:18;-0.15;74.46
65203;HTU21D;51788;45.124;38.966;2022-12-07T01:29:44;-0.16;74.35
65203;HTU21D;51788;45.124;38.966;2022-12-07T01:32:10;-0.16;74.43
65203;HTU21D;51788;45.124;38.966;2022-12-07T01:34:36;-0.20;74.17
65203;HTU21D;51788;45.124;38.966;2022-12-07T01:37:02;-0.23;74.18
65203;HTU21D;51788;45.124;38.966;2022-12-07T01:39:28;-0.31;74.29
65203;HTU21D;51788;45.124;38.966;2022-12-07T01:41:55;-0.37;74.47
65203;HTU21D;51788;45.124;38.966;2022-12-07T01:44:27;-0.36;74.52
65203;HTU21D;51788;45.124;38.966;2022-12-07T01:47:03;-0.40;74.65
65203;HTU21D;51788;45.124;38.966;2022-12-07T01:49:39;-0.40;74.60
65203;HTU21D;51788;45.124;38.966;2022-12-07T01:52:28;-0.38;74.76
65203;HTU21D;51788;45.124;38.966;2022-12-07T01:55:08;-0.37;74.51
65203;HTU21D;51788;45.124;38.966;2022-12-07T01:57:37;-0.42;74.47
65203;HTU21D;51788;45.124;38.966;2022-12-07T02:00:06;-0.45;74.62
65203;HTU21D;51788;45.124;38.966;2022-12-07T02:03:07;-0.46;74.64
65203;HTU21D;51788;45.124;38.966;2022-12-07T02:05:35;-0.45;74.60
65203;HTU21D;51788;45.124;38.966;2022-12-07T02:08:03;-0.51;74.77
65203;HTU21D;51788;45.124;38.966;2022-12-07T02:10:30;-0.50;74.67
65203;HTU21D;51788;45.124;38.966;2022-12-07T02:13:06;-0.50;74.60
65203;HTU21D;51788;45.124;38.966;2022-12-07T02:18:14;-0.47;74.47
65203;HTU21D;51788;45.124;38.966;2022-12-07T02:21:05;-0.50;74.63
65203;HTU21D;51788;45.124;38.966;2022-12-07T02:34:37;-0.57;74.64
65203;HTU21D;51788;45.124;38.966;2022-12-07T02:37:17;-0.59;74.63
65203;HTU21D;51788;45.124;38.966;2022-12-07T02:40:39;-0.58;74.69
65203;HTU21D;51788;45.124;38.966;2022-12-07T02:42:47;-0.58;74.66
65203;HTU21D;51788;45.124;38.966;2022-12-07T02:45:17;-0.53;74.57
65203;HTU21D;51788;45.124;38.966;2022-12-07T02:47:47;-0.50;74.49
65203;HTU21D;51788;45.124;38.966;2022-12-07T02:50:14;-0.51;74.40
65203;HTU21D;51788;45.124;38.966;2022-12-07T02:52:40;-0.54;74.43
65203;HTU21D;51788;45.124;38.966;2022-12-07T02:55:07;-0.52;74.57
65203;HTU21D;51788;45.124;38.966;2022-12-07T02:57:45;-0.46;74.55
65203;HTU21D;51788;45.124;38.966;2022-12-07T03:00:16;-0.45;74.39
65203;HTU21D;51788;45.124;38.966;2022-12-07T03:03:00;-0.47;74.29
65203;HTU21D;51788;45.124;38.966;2022-12-07T03:11:04;-0.56;74.65
65203;HTU21D;51788;45.124;38.966;2022-12-07T03:16:29;-0.65;74.68
65203;HTU21D;51788;45.124;38.966;2022-12-07T03:19:09;-0.66;74.50
65203;HTU21D;51788;45.124;38.966;2022-12-07T03:21:41;-0.70;74.68
65203;HTU21D;51788;45.124;38.966;2022-12-07T03:24:14;-0.69;74.71
65203;HTU21D;51788;45.124;38.966;2022-12-07T03:27:02;-0.70;74.67
65203;HTU21D;51788;45.124;38.966;2022-12-07T03:29:36;-0.70;74.51
65203;HTU21D;51788;45.124;38.966;2022-12-07T03:32:09;-0.76;74.54
65203;HTU21D;51788;45.124;38.966;2022-12-07T03:34:47;-0.77;74.66
65203;HTU21D;51788;45.124;38.966;2022-12-07T03:37:36;-0.80;74.67
65203;HTU21D;51788;45.124;38.966;2022-12-07T03:40:23;-0.80;74.64
65203;HTU21D;51788;45.124;38.966;2022-12-07T03:42:50;-0.84;74.73
65203;HTU21D;51788;45.124;38.966;2022-12-07T03:45:17;-0.85;74.83
65203;HTU21D;51788;45.124;38.966;2022-12-07T03:50:48;-0.84;74.95
65203;HTU21D;51788;45.124;38.966;2022-12-07T03:53:24;-0.85;74.87
65203;HTU21D;51788;45.124;38.966;2022-12-07T03:55:52;-0.88;75.05
65203;HTU21D;51788;45.124;38.966;2022-12-07T03:58:20;-0.87;74.96
65203;HTU21D;51788;45.124;38.966;2022-12-07T04:00:47;-0.88;75.06
65203;HTU21D;51788;45.124;38.966;2022-12-07T04:03:14;-0.87;75.05
65203;HTU21D;51788;45.124;38.966;2022-12-07T04:05:40;-0.83;75.13
65203;HTU21D;51788;45.124;38.966;2022-12-07T04:08:08;-0.76;74.98
65203;HTU21D;51788;45.124;38.966;2022-12-07T04:10:34;-0.75;74.89
65203;HTU21D;51788;45.124;38.966;2022-12-07T04:13:00;-0.75;74.88
65203;HTU21D;51788;45.124;38.966;2022-12-07T04:15:26;-0.76;74.94
65203;HTU21D;51788;45.124;38.966;2022-12-07T04:17:52;-0.79;74.98
65203;HTU21D;51788;45.124;38.966;2022-12-07T04:20:18;-0.79;75.02
65203;HTU21D;51788;45.124;38.966;2022-12-07T04:22:44;-0.82;75.05
65203;HTU21D;51788;45.124;38.966;2022-12-07T04:25:10;-0.83;75.12
65203;HTU21D;51788;45.124;38.966;2022-12-07T04:27:36;-0.81;75.10
65203;HTU21D;51788;45.124;38.966;2022-12-07T04:30:02;-0.81;75.12
65203;HTU21D;51788;45.124;38.966;2022-12-07T04:32:28;-0.81;75.12
65203;HTU21D;51788;45.124;38.966;2022-12-07T04:34:54;-0.81;75.18
65203;HTU21D;51788;45.124;38.966;2022-12-07T04:37:20;-0.76;75.24
65203;HTU21D;51788;45.124;38.966;2022-12-07T04:39:46;-0.73;75.22
65203;HTU21D;51788;45.124;38.966;2022-12-07T04:42:12;-0.66;75.01
65203;HTU21D;51788;45.124;38.966;2022-12-07T04:44:40;-0.64;75.09
65203;HTU21D;51788;45.124;38.966;2022-12-07T04:47:06;-0.64;75.01
65203;HTU21D;51788;45.124;38.966;2022-12-07T04:49:33;-0.62;75.05
65203;HTU21D;51788;45.124;38.966;2022-12-07T04:51:59;-0.64;74.98
65203;HTU21D;51788;45.124;38.966;2022-12-07T04:54:25;-0.67;75.10
65203;HTU21D;51788;45.124;38.966;2022-12-07T04:56:51;-0.64;75.03
65203;HTU21D;51788;45.124;38.966;2022-12-07T04:59:17;-0.64;75.12
65203;HTU21D;51788;45.124;38.966;2022-12-07T05:01:43;-0.64;75.02
65203;HTU21D;51788;45.124;38.966;2022-12-07T05:04:09;-0.64;74.96
65203;HTU21D;51788;45.124;38.966;2022-12-07T05:06:35;-0.65;74.96
65203;HTU21D;51788;45.124;38.966;2022-12-07T05:09:02;-0.62;75.08
65203;HTU21D;51788;45.124;38.966;2022-12-07T05:11:28;-0.64;75.09
65203;HTU21D;51788;45.124;38.966;2022-12-07T05:14:06;-0.59;74.94
65203;HTU21D;51788;45.124;38.966;2022-12-07T05:16:32;-0.55;75.11
65203;HTU21D;51788;45.124;38.966;2022-12-07T05:18:58;-0.49;74.93
65203;HTU21D;51788;45.124;38.966;2022-12-07T05:21:24;-0.46;74.83
65203;HTU21D;51788;45.124;38.966;2022-12-07T05:23:50;-0.47;74.78
65203;HTU21D;51788;45.124;38.966;2022-12-07T05:26:17;-0.46;74.90
65203;HTU21D;51788;45.124;38.966;2022-12-07T05:28:43;-0.42;74.75
65203;HTU21D;51788;45.124;38.966;2022-12-07T05:31:09;-0.41;74.57
65203;HTU21D;51788;45.124;38.966;2022-12-07T05:33:35;-0.45;74.78
65203;HTU21D;51788;45.124;38.966;2022-12-07T05:36:01;-0.43;74.87
65203;HTU21D;51788;45.124;38.966;2022-12-07T05:38:34;-0.40;74.77
65203;HTU21D;51788;45.124;38.966;2022-12-07T05:41:04;-0.42;75.12
65203;HTU21D;51788;45.124;38.966;2022-12-07T05:43:31;-0.45;75.44
65203;HTU21D;51788;45.124;38.966;2022-12-07T05:45:57;-0.42;75.93
65203;HTU21D;51788;45.124;38.966;2022-12-07T05:48:23;-0.39;75.83
65203;HTU21D;51788;45.124;38.966;2022-12-07T05:50:50;-0.36;76.15
65203;HTU21D;51788;45.124;38.966;2022-12-07T05:53:16;-0.38;76.25
65203;HTU21D;51788;45.124;38.966;2022-12-07T05:55:43;-0.39;76.50
65203;HTU21D;51788;45.124;38.966;2022-12-07T05:58:09;-0.38;76.55
65203;HTU21D;51788;45.124;38.966;2022-12-07T06:00:56;-0.41;76.57
65203;HTU21D;51788;45.124;38.966;2022-12-07T06:03:22;-0.41;76.81
65203;HTU21D;51788;45.124;38.966;2022-12-07T06:05:48;-0.41;76.76
65203;HTU21D;51788;45.124;38.966;2022-12-07T06:08:13;-0.39;76.75
65203;HTU21D;51788;45.124;38.966;2022-12-07T06:10:41;-0.37;76.75
65203;HTU21D;51788;45.124;38.966;2022-12-07T06:13:08;-0.32;76.75
65203;HTU21D;51788;45.124;38.966;2022-12-07T06:15:37;-0.30;76.67
65203;HTU21D;51788;45.124;38.966;2022-12-07T06:18:03;-0.30;76.57
65203;HTU21D;51788;45.124;38.966;2022-12-07T06:20:29;-0.27;76.56
65203;HTU21D;51788;45.124;38.966;2022-12-07T06:22:56;-0.23;76.60
65203;HTU21D;51788;45.124;38.966;2022-12-07T06:25:22;-0.19;76.45
65203;HTU21D;51788;45.124;38.966;2022-12-07T06:27:48;-0.10;76.45
65203;HTU21D;51788;45.124;38.966;2022-12-07T06:30:14;-0.08;76.39
65203;HTU21D;51788;45.124;38.966;2022-12-07T06:32:39;-0.13;76.45
65203;HTU21D;51788;45.124;38.966;2022-12-07T06:35:06;-0.16;76.47
65203;HTU21D;51788;45.124;38.966;2022-12-07T06:37:32;-0.11;76.50
65203;HTU21D;51788;45.124;38.966;2022-12-07T06:39:57;-0.01;76.46
65203;HTU21D;51788;45.124;38.966;2022-12-07T06:42:23;0.03;76.39
65203;HTU21D;51788;45.124;38.966;2022-12-07T06:44:49;0.07;76.14
65203;HTU21D;51788;45.124;38.966;2022-12-07T06:47:15;0.04;76.20
65203;HTU21D;51788;45.124;38.966;2022-12-07T06:49:41;0.04;76.18
65203;HTU21D;51788;45.124;38.966;2022-12-07T06:52:07;0.07;76.25
65203;HTU21D;51788;45.124;38.966;2022-12-07T06:54:33;0.13;76.19
65203;HTU21D;51788;45.124;38.966;2022-12-07T06:56:59;0.16;76.15
65203;HTU21D;51788;45.124;38.966;2022-12-07T06:59:25;0.25;76.35
65203;HTU21D;51788;45.124;38.966;2022-12-07T07:01:51;0.33;76.19
65203;HTU21D;51788;45.124;38.966;2022-12-07T07:04:16;0.29;76.01
65203;HTU21D;51788;45.124;38.966;2022-12-07T07:06:42;0.27;76.12
65203;HTU21D;51788;45.124;38.966;2022-12-07T07:09:08;0.25;76.30
65203;HTU21D;51788;45.124;38.966;2022-12-07T07:11:35;0.29;76.47
65203;HTU21D;51788;45.124;38.966;2022-12-07T07:14:01;0.28;76.52
65203;HTU21D;51788;45.124;38.966;2022-12-07T07:16:29;0.30;76.76
65203;HTU21D;51788;45.124;38.966;2022-12-07T07:18:56;0.31;76.78
65203;HTU21D;51788;45.124;38.966;2022-12-07T07:21:22;0.34;76.86
65203;HTU21D;51788;45.124;38.966;2022-12-07T07:23:48;0.37;77.07
65203;HTU21D;51788;45.124;38.966;2022-12-07T07:26:14;0.36;77.08
65203;HTU21D;51788;45.124;38.966;2022-12-07T07:28:40;0.34;77.15
65203;HTU21D;51788;45.124;38.966;2022-12-07T07:31:06;0.32;77.26
65203;HTU21D;51788;45.124;38.966;2022-12-07T07:33:32;0.29;77.42
65203;HTU21D;51788;45.124;38.966;2022-12-07T07:35:58;0.27;77.56
65203;HTU21D;51788;45.124;38.966;2022-12-07T07:38:24;0.29;77.92
65203;HTU21D;51788;45.124;38.966;2022-12-07T07:40:50;0.28;77.93
65203;HTU21D;51788;45.124;38.966;2022-12-07T07:43:16;0.25;77.86
65203;HTU21D;51788;45.124;38.966;2022-12-07T07:45:42;0.33;77.87
65203;HTU21D;51788;45.124;38.966;2022-12-07T07:48:08;0.39;77.98
65203;HTU21D;51788;45.124;38.966;2022-12-07T07:50:34;0.44;77.89
65203;HTU21D;51788;45.124;38.966;2022-12-07T07:53:00;0.49;78.04
65203;HTU21D;51788;45.124;38.966;2022-12-07T07:55:26;0.52;77.92
65203;HTU21D;51788;45.124;38.966;2022-12-07T07:57:52;0.53;77.95
65203;HTU21D;51788;45.124;38.966;2022-12-07T08:00:18;0.60;77.93
65203;HTU21D;51788;45.124;38.966;2022-12-07T08:02:44;0.61;77.76
65203;HTU21D;51788;45.124;38.966;2022-12-07T08:05:11;0.76;77.61
65203;HTU21D;51788;45.124;38.966;2022-12-07T08:07:38;0.94;77.50
65203;HTU21D;51788;45.124;38.966;2022-12-07T08:10:04;1.02;77.43
65203;HTU21D;51788;45.124;38.966;2022-12-07T08:12:30;1.05;77.35
65203;HTU21D;51788;45.124;38.966;2022-12-07T08:14:56;1.12;77.33
65203;HTU21D;51788;45.124;38.966;2022-12-07T08:17:22;1.13;77.15
65203;HTU21D;51788;45.124;38.966;2022-12-07T08:19:48;1.09;77.16
65203;HTU21D;51788;45.124;38.966;2022-12-07T08:22:14;1.05;76.94
65203;HTU21D;51788;45.124;38.966;2022-12-07T08:24:40;1.07;77.05
65203;HTU21D;51788;45.124;38.966;2022-12-07T08:27:06;1.11;77.19
65203;HTU21D;51788;45.124;38.966;2022-12-07T08:29:32;1.16;76.92
65203;HTU21D;51788;45.124;38.966;2022-12-07T08:31:58;1.13;76.85
65203;HTU21D;51788;45.124;38.966;2022-12-07T08:34:26;1.17;76.94
65203;HTU21D;51788;45.124;38.966;2022-12-07T08:36:52;1.17;76.86
65203;HTU21D;51788;45.124;38.966;2022-12-07T08:39:18;1.21;76.78
65203;HTU21D;51788;45.124;38.966;2022-12-07T08:41:43;1.24;76.91
65203;HTU21D;51788;45.124;38.966;2022-12-07T08:44:09;1.31;76.84
65203;HTU21D;51788;45.124;38.966;2022-12-07T08:46:40;1.31;76.69
65203;HTU21D;51788;45.124;38.966;2022-12-07T08:49:19;1.31;76.70
65203;HTU21D;51788;45.124;38.966;2022-12-07T08:51:46;1.31;76.72
65203;HTU21D;51788;45.124;38.966;2022-12-07T08:54:14;1.35;76.76
65203;HTU21D;51788;45.124;38.966;2022-12-07T08:56:42;1.37;76.71
65203;HTU21D;51788;45.124;38.966;2022-12-07T08:59:09;1.37;76.70
65203;HTU21D;51788;45.124;38.966;2022-12-07T09:01:37;1.36;76.73
65203;HTU21D;51788;45.124;38.966;2022-12-07T09:04:03;1.40;76.50
65203;HTU21D;51788;45.124;38.966;2022-12-07T09:06:29;1.45;76.58
65203;HTU21D;51788;45.124;38.966;2022-12-07T09:08:58;1.49;76.44
65203;HTU21D;51788;45.124;38.966;2022-12-07T09:11:24;1.55;76.43
65203;HTU21D;51788;45.124;38.966;2022-12-07T09:13:50;1.56;76.39
65203;HTU21D;51788;45.124;38.966;2022-12-07T09:16:16;1.65;76.37
65203;HTU21D;51788;45.124;38.966;2022-12-07T09:18:42;1.75;76.47
65203;HTU21D;51788;45.124;38.966;2022-12-07T09:21:08;1.87;76.10
65203;HTU21D;51788;45.124;38.966;2022-12-07T09:23:35;1.94;75.92
65203;HTU21D;51788;45.124;38.966;2022-12-07T09:26:02;1.96;75.79
65203;HTU21D;51788;45.124;38.966;2022-12-07T09:28:28;2.02;75.79
65203;HTU21D;51788;45.124;38.966;2022-12-07T09:30:54;2.11;75.47
65203;HTU21D;51788;45.124;38.966;2022-12-07T09:33:20;2.13;75.33
65203;HTU21D;51788;45.124;38.966;2022-12-07T09:35:47;2.23;75.18
65203;HTU21D;51788;45.124;38.966;2022-12-07T09:38:13;2.25;75.09
65203;HTU21D;51788;45.124;38.966;2022-12-07T09:40:39;2.32;75.38
65203;HTU21D;51788;45.124;38.966;2022-12-07T09:43:16;2.41;75.15
65203;HTU21D;51788;45.124;38.966;2022-12-07T09:45:44;2.45;74.61
65203;HTU21D;51788;45.124;38.966;2022-12-07T09:48:39;2.51;74.88
65203;HTU21D;51788;45.124;38.966;2022-12-07T09:51:21;2.60;74.70
65203;HTU21D;51788;45.124;38.966;2022-12-07T09:53:48;2.68;74.25
65203;HTU21D;51788;45.124;38.966;2022-12-07T09:56:16;2.71;74.04
65203;HTU21D;51788;45.124;38.966;2022-12-07T09:58:43;2.79;74.38
65203;HTU21D;51788;45.124;38.966;2022-12-07T10:03:38;2.91;74.12
65203;HTU21D;51788;45.124;38.966;2022-12-07T10:06:06;3.09;73.36
65203;HTU21D;51788;45.124;38.966;2022-12-07T10:08:33;3.14;73.54
65203;HTU21D;51788;45.124;38.966;2022-12-07T10:11:01;3.18;73.80
65203;HTU21D;51788;45.124;38.966;2022-12-07T10:13:52;3.29;73.31
65203;HTU21D;51788;45.124;38.966;2022-12-07T10:18:52;3.26;73.05
65203;HTU21D;51788;45.124;38.966;2022-12-07T10:21:21;3.18;73.21
65203;HTU21D;51788;45.124;38.966;2022-12-07T10:24:13;3.21;73.46
65203;HTU21D;51788;45.124;38.966;2022-12-07T10:32:29;3.32;72.88
65203;HTU21D;51788;45.124;38.966;2022-12-07T10:35:26;3.40;72.76
65203;HTU21D;51788;45.124;38.966;2022-12-07T10:37:53;3.50;73.01
65203;HTU21D;51788;45.124;38.966;2022-12-07T10:40:35;3.63;73.05
65203;HTU21D;51788;45.124;38.966;2022-12-07T10:51:59;3.64;72.41
65203;HTU21D;51788;45.124;38.966;2022-12-07T10:57:26;3.78;72.42
65203;HTU21D;51788;45.124;38.966;2022-12-07T11:00:21;3.79;72.54
65203;HTU21D;51788;45.124;38.966;2022-12-07T11:11:29;3.93;71.77
65203;HTU21D;51788;45.124;38.966;2022-12-07T11:22:45;3.90;71.64
65203;HTU21D;51788;45.124;38.966;2022-12-07T11:25:31;3.93;71.80
65203;HTU21D;51788;45.124;38.966;2022-12-07T11:32:02;4.03;71.65
65203;HTU21D;51788;45.124;38.966;2022-12-07T11:37:01;4.06;72.00
65203;HTU21D;51788;45.124;38.966;2022-12-07T11:39:35;4.09;71.95
65203;HTU21D;51788;45.124;38.966;2022-12-07T11:42:06;4.15;71.81
65203;HTU21D;51788;45.124;38.966;2022-12-07T11:45:01;4.20;71.97
65203;HTU21D;51788;45.124;38.966;2022-12-07T11:47:47;4.24;72.28
65203;HTU21D;51788;45.124;38.966;2022-12-07T12:04:32;4.47;70.87
65203;HTU21D;51788;45.124;38.966;2022-12-07T12:06:59;4.45;71.03
65203;HTU21D;51788;45.124;38.966;2022-12-07T12:09:58;4.46;71.06
65203;HTU21D;51788;45.124;38.966;2022-12-07T12:12:53;4.48;70.93
65203;HTU21D;51788;45.124;38.966;2022-12-07T12:21:20;4.48;70.92
65203;HTU21D;51788;45.124;38.966;2022-12-07T12:24:02;4.49;71.18
65203;HTU21D;51788;45.124;38.966;2022-12-07T12:26:33;4.51;71.28
65203;HTU21D;51788;45.124;38.966;2022-12-07T12:29:04;4.53;71.06
65203;HTU21D;51788;45.124;38.966;2022-12-07T12:31:36;4.51;71.21
65203;HTU21D;51788;45.124;38.966;2022-12-07T12:36:51;4.50;71.27
65203;HTU21D;51788;45.124;38.966;2022-12-07T12:39:18;4.51;71.26
65203;HTU21D;51788;45.124;38.966;2022-12-07T12:41:50;4.52;71.00
65203;HTU21D;51788;45.124;38.966;2022-12-07T12:49:37;4.53;71.16
65203;HTU21D;51788;45.124;38.966;2022-12-07T12:54:40;4.48;71.48
65203;HTU21D;51788;45.124;38.966;2022-12-07T12:57:29;4.47;71.56
65203;HTU21D;51788;45.124;38.966;2022-12-07T12:59:56;4.46;71.53
65203;HTU21D;51788;45.124;38.966;2022-12-07T13:16:37;4.23;72.50
65203;HTU21D;51788;45.124;38.966;2022-12-07T13:18:41;4.19;72.70
65203;HTU21D;51788;45.124;38.966;2022-12-07T13:23:57;4.17;72.95
65203;HTU21D;51788;45.124;38.966;2022-12-07T13:34:03;4.09;73.22
65203;HTU21D;51788;45.124;38.966;2022-12-07T13:36:33;4.09;73.28
65203;HTU21D;51788;45.124;38.966;2022-12-07T13:39:21;4.10;73.31
65203;HTU21D;51788;45.124;38.966;2022-12-07T13:41:56;4.09;73.33
65203;HTU21D;51788;45.124;38.966;2022-12-07T13:44:24;4.07;73.37
65203;HTU21D;51788;45.124;38.966;2022-12-07T13:49:28;4.04;73.52
65203;HTU21D;51788;45.124;38.966;2022-12-07T13:57:32;4.00;73.65
65203;HTU21D;51788;45.124;38.966;2022-12-07T14:00:06;4.01;73.69
65203;HTU21D;51788;45.124;38.966;2022-12-07T14:02:34;3.95;73.66
65203;HTU21D;51788;45.124;38.966;2022-12-07T14:10:38;4.00;73.77
65203;HTU21D;51788;45.124;38.966;2022-12-07T14:16:03;4.04;73.66
65203;HTU21D;51788;45.124;38.966;2022-12-07T14:18:39;4.03;73.68
65203;HTU21D;51788;45.124;38.966;2022-12-07T14:21:14;4.04;73.63
65203;HTU21D;51788;45.124;38.966;2022-12-07T14:23:41;4.05;73.63
65203;HTU21D;51788;45.124;38.966;2022-12-07T14:26:14;4.06;73.63
65203;HTU21D;51788;45.124;38.966;2022-12-07T14:28:42;4.04;73.67
65203;HTU21D;51788;45.124;38.966;2022-12-07T14:31:14;4.06;73.68
65203;HTU21D;51788;45.124;38.966;2022-12-07T14:33:41;4.07;73.66
65203;HTU21D;51788;45.124;38.966;2022-12-07T14:36:14;4.07;73.70
65203;HTU21D;51788;45.124;38.966;2022-12-07T14:38:40;4.10;73.69
65203;HTU21D;51788;45.124;38.966;2022-12-07T14:41:13;4.09;73.68
65203;HTU21D;51788;45.124;38.966;2022-12-07T14:43:59;4.10;73.66
65203;HTU21D;51788;45.124;38.966;2022-12-07T14:46:25;4.12;73.69
65203;HTU21D;51788;45.124;38.966;2022-12-07T14:48:51;4.13;73.65
65203;HTU21D;51788;45.124;38.966;2022-12-07T14:51:17;4.12;73.70
65203;HTU21D;51788;45.124;38.966;2022-12-07T14:53:47;4.13;73.64
65203;HTU21D;51788;45.124;38.966;2022-12-07T14:56:14;4.13;73.63
65203;HTU21D;51788;45.124;38.966;2022-12-07T14:58:40;4.14;73.60
65203;HTU21D;51788;45.124;38.966;2022-12-07T15:01:06;4.14;73.57
65203;HTU21D;51788;45.124;38.966;2022-12-07T15:03:32;4.12;73.62
65203;HTU21D;51788;45.124;38.966;2022-12-07T15:06:00;4.13;73.53
65203;HTU21D;51788;45.124;38.966;2022-12-07T15:08:27;4.12;73.54
65203;HTU21D;51788;45.124;38.966;2022-12-07T15:10:52;4.12;73.60
65203;HTU21D;51788;45.124;38.966;2022-12-07T15:13:18;4.13;73.61
65203;HTU21D;51788;45.124;38.966;2022-12-07T15:16:03;4.14;73.55
65203;HTU21D;51788;45.124;38.966;2022-12-07T15:18:29;4.12;73.61
65203;HTU21D;51788;45.124;38.966;2022-12-07T15:20:55;4.13;73.67
65203;HTU21D;51788;45.124;38.966;2022-12-07T15:23:21;4.13;73.66
65203;HTU21D;51788;45.124;38.966;2022-12-07T15:25:48;4.16;73.61
65203;HTU21D;51788;45.124;38.966;2022-12-07T15:28:14;4.14;73.57
65203;HTU21D;51788;45.124;38.966;2022-12-07T15:30:41;4.13;73.59
65203;HTU21D;51788;45.124;38.966;2022-12-07T15:33:11;4.13;73.65
65203;HTU21D;51788;45.124;38.966;2022-12-07T15:35:42;4.13;73.62
65203;HTU21D;51788;45.124;38.966;2022-12-07T15:38:09;4.15;73.53
65203;HTU21D;51788;45.124;38.966;2022-12-07T15:40:35;4.15;73.49
65203;HTU21D;51788;45.124;38.966;2022-12-07T15:43:02;4.15;73.48
65203;HTU21D;51788;45.124;38.966;2022-12-07T15:45:28;4.15;73.44
65203;HTU21D;51788;45.124;38.966;2022-12-07T15:47:54;4.14;73.48
65203;HTU21D;51788;45.124;38.966;2022-12-07T15:50:21;4.15;73.47
65203;HTU21D;51788;45.124;38.966;2022-12-07T15:52:48;4.15;73.41
65203;HTU21D;51788;45.124;38.966;2022-12-07T15:55:14;4.15;73.31
65203;HTU21D;51788;45.124;38.966;2022-12-07T15:57:40;4.15;73.29
65203;HTU21D;51788;45.124;38.966;2022-12-07T16:00:08;4.17;73.23
65203;HTU21D;51788;45.124;38.966;2022-12-07T16:02:35;4.16;73.22
65203;HTU21D;51788;45.124;38.966;2022-12-07T16:05:02;4.16;73.12
65203;HTU21D;51788;45.124;38.966;2022-12-07T16:07:28;4.17;73.11
65203;HTU21D;51788;45.124;38.966;2022-12-07T16:09:54;4.16;73.19
65203;HTU21D;51788;45.124;38.966;2022-12-07T16:12:20;4.17;72.96
65203;HTU21D;51788;45.124;38.966;2022-12-07T16:14:46;4.18;72.80
65203;HTU21D;51788;45.124;38.966;2022-12-07T16:17:12;4.17;72.91
65203;HTU21D;51788;45.124;38.966;2022-12-07T16:19:38;4.17;72.63
65203;HTU21D;51788;45.124;38.966;2022-12-07T16:22:05;4.18;72.89
65203;HTU21D;51788;45.124;38.966;2022-12-07T16:24:31;4.20;72.88
65203;HTU21D;51788;45.124;38.966;2022-12-07T16:26:57;4.21;72.86
65203;HTU21D;51788;45.124;38.966;2022-12-07T16:29:23;4.21;72.66
65203;HTU21D;51788;45.124;38.966;2022-12-07T16:31:51;4.21;72.77
65203;HTU21D;51788;45.124;38.966;2022-12-07T16:34:17;4.22;72.48
65203;HTU21D;51788;45.124;38.966;2022-12-07T16:36:43;4.24;72.67
65203;HTU21D;51788;45.124;38.966;2022-12-07T16:39:10;4.24;72.64
65203;HTU21D;51788;45.124;38.966;2022-12-07T16:41:35;4.26;72.45
65203;HTU21D;51788;45.124;38.966;2022-12-07T16:44:06;4.27;72.36
65203;HTU21D;51788;45.124;38.966;2022-12-07T16:46:33;4.24;72.45
65203;HTU21D;51788;45.124;38.966;2022-12-07T16:48:59;4.24;72.37
65203;HTU21D;51788;45.124;38.966;2022-12-07T16:51:26;4.23;72.35
65203;HTU21D;51788;45.124;38.966;2022-12-07T16:53:53;4.23;72.24
65203;HTU21D;51788;45.124;38.966;2022-12-07T16:56:19;4.22;72.35
65203;HTU21D;51788;45.124;38.966;2022-12-07T16:58:45;4.20;72.48
65203;HTU21D;51788;45.124;38.966;2022-12-07T17:01:17;4.17;72.37
65203;HTU21D;51788;45.124;38.966;2022-12-07T17:03:44;4.18;72.34
65203;HTU21D;51788;45.124;38.966;2022-12-07T17:06:19;4.17;72.36
65203;HTU21D;51788;45.124;38.966;2022-12-07T17:08:47;4.17;72.34
65203;HTU21D;51788;45.124;38.966;2022-12-07T17:11:18;4.16;72.54
65203;HTU21D;51788;45.124;38.966;2022-12-07T17:13:45;4.16;72.35
65203;HTU21D;51788;45.124;38.966;2022-12-07T17:16:30;4.14;72.35
65203;HTU21D;51788;45.124;38.966;2022-12-07T17:18:56;4.17;72.13
65203;HTU21D;51788;45.124;38.966;2022-12-07T17:21:23;4.13;72.29
65203;HTU21D;51788;45.124;38.966;2022-12-07T17:23:50;4.13;72.24
65203;HTU21D;51788;45.124;38.966;2022-12-07T17:26:20;4.13;72.16
65203;HTU21D;51788;45.124;38.966;2022-12-07T17:28:46;4.12;72.22
65203;HTU21D;51788;45.124;38.966;2022-12-07T17:31:14;4.10;72.23
65203;HTU21D;51788;45.124;38.966;2022-12-07T17:33:41;4.10;72.18
65203;HTU21D;51788;45.124;38.966;2022-12-07T17:36:19;4.08;72.32
65203;HTU21D;51788;45.124;38.966;2022-12-07T17:38:45;4.07;72.41
65203;HTU21D;51788;45.124;38.966;2022-12-07T17:41:24;4.10;72.46
65203;HTU21D;51788;45.124;38.966;2022-12-07T17:44:11;4.13;72.29
65203;HTU21D;51788;45.124;38.966;2022-12-07T17:46:38;4.13;72.38